createdAt,value
2019-02-12T00:01:37.020Z,8.60
2019-02-12T00:04:07.481Z,8.63
2019-02-12T00:06:37.949Z,8.85
2019-02-12T00:09:10.099Z,8.70
2019-02-12T00:11:40.906Z,8.53
2019-02-12T00:14:11.471Z,8.65
2019-02-12T00:16:42.145Z,8.40
2019-02-12T00:19:12.580Z,8.67
2019-02-12T00:21:43.013Z,9.27
2019-02-12T00:24:13.608Z,9.80
2019-02-12T00:26:44.068Z,9.97
2019-02-12T00:29:14.789Z,9.73
2019-02-12T00:31:45.258Z,9.95
2019-02-12T00:34:15.717Z,9.17
2019-02-12T00:36:46.177Z,9.03
2019-02-12T00:39:16.997Z,9.03
2019-02-12T00:41:47.413Z,9.65
2019-02-12T00:44:18.093Z,9.50
2019-02-12T00:46:48.817Z,9.10
2019-02-12T00:49:20.332Z,9.90
2019-02-12T00:51:50.801Z,10.20
2019-02-12T00:54:21.241Z,9.23
2019-02-12T00:56:51.675Z,8.60
2019-02-12T00:59:22.142Z,9.60
2019-02-12T01:01:53.573Z,9.37
2019-02-12T01:04:24.049Z,9.68
2019-02-12T01:06:54.507Z,9.57
2019-02-12T01:09:25.024Z,9.00
2019-02-12T01:11:55.697Z,9.13
2019-02-12T01:14:26.154Z,9.30
2019-02-12T01:16:56.853Z,8.85
2019-02-12T01:19:27.625Z,8.58
2019-02-12T01:21:58.052Z,8.63
2019-02-12T01:24:28.477Z,9.03
2019-02-12T01:26:58.913Z,8.60
2019-02-12T01:29:29.948Z,9.70
2019-02-12T01:32:00.917Z,8.85
2019-02-12T01:34:32.100Z,9.00
2019-02-12T01:37:02.552Z,9.53
2019-02-12T01:39:34.624Z,9.70
2019-02-12T01:42:05.306Z,10.13
2019-02-12T01:44:35.833Z,9.47
2019-02-12T01:47:06.556Z,9.60
2019-02-12T01:49:36.986Z,9.50
2019-02-12T01:52:07.481Z,9.63
2019-02-12T01:54:37.965Z,9.57
2019-02-12T01:57:08.431Z,8.90
2019-02-12T01:59:38.899Z,9.53
2019-02-12T02:02:09.340Z,9.57
2019-02-12T02:04:39.790Z,10.10
2019-02-12T02:07:10.216Z,9.97
2019-02-12T02:09:40.666Z,9.50
2019-02-12T02:12:11.121Z,9.35
2019-02-12T02:14:42.002Z,10.23
2019-02-12T02:17:12.681Z,10.57
2019-02-12T02:19:43.408Z,9.67
2019-02-12T02:22:13.845Z,10.50
2019-02-12T02:24:44.300Z,9.98
2019-02-12T02:27:14.749Z,10.20
2019-02-12T02:29:45.201Z,10.78
2019-02-12T02:32:15.661Z,10.17
2019-02-12T02:34:47.077Z,10.58
2019-02-12T02:37:18.443Z,10.27
2019-02-12T02:39:48.911Z,9.70
2019-02-12T02:42:19.633Z,10.72
2019-02-12T02:44:50.090Z,10.13
2019-02-12T02:47:20.540Z,9.98
2019-02-12T02:49:51.000Z,9.93
2019-02-12T02:52:21.429Z,10.08
2019-02-12T02:54:51.869Z,9.70
2019-02-12T02:57:22.589Z,10.00
2019-02-12T02:59:53.029Z,10.05
2019-02-12T03:02:23.483Z,9.98
2019-02-12T03:04:54.014Z,9.43
2019-02-12T03:07:24.437Z,9.90
2019-02-12T03:09:54.867Z,9.77
2019-02-12T03:12:26.289Z,9.27
2019-02-12T03:14:56.757Z,9.88
2019-02-12T03:17:27.202Z,9.17
2019-02-12T03:19:57.667Z,8.45
2019-02-12T03:22:28.488Z,9.15
2019-02-12T03:24:59.115Z,9.55
2019-02-12T03:27:29.542Z,8.35
2019-02-12T03:30:00.500Z,8.00
2019-02-12T03:32:31.054Z,7.95
2019-02-12T03:35:01.572Z,8.25
2019-02-12T03:37:32.061Z,8.48
2019-02-12T03:40:02.590Z,8.50
2019-02-12T03:42:33.043Z,8.50
2019-02-12T03:45:03.711Z,8.33
2019-02-12T03:47:34.132Z,8.57
2019-02-12T03:50:04.984Z,8.63
2019-02-12T03:52:36.416Z,8.10
2019-02-12T03:55:08.218Z,8.77
2019-02-12T03:57:38.965Z,8.60
2019-02-12T04:00:12.270Z,9.15
2019-02-12T04:03:05.826Z,9.55
2019-02-12T04:05:37.464Z,9.30
2019-02-12T04:08:08.209Z,9.53
2019-02-12T04:10:38.965Z,9.83
2019-02-12T04:13:09.400Z,9.83
2019-02-12T04:15:39.897Z,9.33
2019-02-12T04:18:10.340Z,9.20
2019-02-12T04:20:41.540Z,9.40
2019-02-12T04:23:11.983Z,10.00
2019-02-12T04:25:42.424Z,10.00
2019-02-12T04:28:12.859Z,9.73
2019-02-12T04:30:43.296Z,9.80
2019-02-12T04:33:13.774Z,9.47
2019-02-12T04:35:44.244Z,10.08
2019-02-12T04:38:14.702Z,11.00
2019-02-12T04:40:45.162Z,11.25
2019-02-12T04:43:15.644Z,10.50
2019-02-12T04:45:46.093Z,10.80
2019-02-12T04:48:16.529Z,11.03
2019-02-12T04:50:46.995Z,10.70
2019-02-12T04:53:17.773Z,11.33
2019-02-12T04:55:48.461Z,11.77
2019-02-12T04:58:19.912Z,11.40
2019-02-12T05:00:50.365Z,12.10
2019-02-12T05:03:21.182Z,12.88
2019-02-12T05:05:51.657Z,13.10
2019-02-12T05:08:22.101Z,14.07
2019-02-12T05:11:00.359Z,13.28
2019-02-12T05:13:30.799Z,13.17
2019-02-12T05:16:01.254Z,13.80
2019-02-12T05:18:32.782Z,13.90
2019-02-12T05:21:03.228Z,12.95
2019-02-12T05:23:33.667Z,12.68
2019-02-12T05:26:04.108Z,12.30
2019-02-12T05:28:34.549Z,13.00
2019-02-12T05:31:05.029Z,12.57
2019-02-12T05:33:35.566Z,12.73
2019-02-12T05:36:06.070Z,13.50
2019-02-12T05:38:36.532Z,13.23
2019-02-12T05:41:06.973Z,12.20
2019-02-12T05:43:37.450Z,13.40
2019-02-12T05:46:07.898Z,13.53
2019-02-12T05:48:39.744Z,12.60
2019-02-12T05:51:10.202Z,11.85
2019-02-12T05:53:41.410Z,11.77
2019-02-12T05:56:11.860Z,12.00
2019-02-12T05:58:42.665Z,11.45
2019-02-12T06:01:13.399Z,12.27
2019-02-12T06:03:43.850Z,12.53
2019-02-12T06:06:14.296Z,11.57
2019-02-12T06:08:44.761Z,12.18
2019-02-12T06:11:15.224Z,11.80
2019-02-12T06:13:46.665Z,11.73
2019-02-12T06:16:17.113Z,11.87
2019-02-12T06:18:48.906Z,11.35
2019-02-12T06:21:19.360Z,11.00
2019-02-12T06:23:49.833Z,10.40
2019-02-12T06:26:20.696Z,10.55
2019-02-12T06:28:51.201Z,10.77
2019-02-12T06:31:22.188Z,10.32
2019-02-12T06:33:52.643Z,11.10
2019-02-12T06:36:23.234Z,10.10
2019-02-12T06:38:53.672Z,9.93
2019-02-12T06:41:24.114Z,11.20
2019-02-12T06:43:54.704Z,10.65
2019-02-12T06:46:25.486Z,10.72
2019-02-12T06:48:55.958Z,10.90
2019-02-12T06:51:26.414Z,10.58
2019-02-12T06:53:56.871Z,10.85
2019-02-12T06:56:27.317Z,10.43
2019-02-12T06:58:57.773Z,11.20
2019-02-12T07:01:28.284Z,10.90
2019-02-12T07:04:08.810Z,10.57
2019-02-12T07:07:28.442Z,10.95
2019-02-12T07:10:03.267Z,11.23
2019-02-12T07:13:12.434Z,11.53
2019-02-12T07:16:07.014Z,11.17
2019-02-12T07:19:15.720Z,11.05
2019-02-12T07:22:35.833Z,11.57
2019-02-12T07:25:38.109Z,11.60
2019-02-12T07:28:35.474Z,11.80
2019-02-12T07:31:52.361Z,10.60
2019-02-12T07:34:44.777Z,10.45
2019-02-12T07:37:46.415Z,10.80
2019-02-12T07:40:42.761Z,10.23
2019-02-12T07:44:00.126Z,10.38
2019-02-12T07:47:23.655Z,9.58
2019-02-12T07:50:38.197Z,10.45
2019-02-12T07:53:31.294Z,10.17
2019-02-12T07:56:39.158Z,11.10
2019-02-12T07:59:30.840Z,10.85
2019-02-12T08:02:29.462Z,10.53
2019-02-12T08:05:43.094Z,10.48
2019-02-12T08:08:54.717Z,10.75
2019-02-12T08:12:06.269Z,9.93
2019-02-12T08:14:47.748Z,9.43
2019-02-12T08:17:40.205Z,9.40
2019-02-12T08:20:34.306Z,9.25
2019-02-12T08:23:57.390Z,10.30
2019-02-12T08:26:43.564Z,9.25
2019-02-12T08:29:53.822Z,9.80
2019-02-12T08:33:03.990Z,9.90
2019-02-12T08:36:14.455Z,10.28
2019-02-12T08:39:00.699Z,10.75
2019-02-12T08:42:19.082Z,10.28
2019-02-12T08:45:21.113Z,9.77
2019-02-12T08:48:47.881Z,9.05
2019-02-12T08:51:55.791Z,10.40
2019-02-12T08:54:56.117Z,10.60
2019-02-12T08:58:03.839Z,9.67
2019-02-12T09:01:12.485Z,10.28
2019-02-12T09:04:25.645Z,9.40
2019-02-12T09:07:36.923Z,8.53
2019-02-12T09:11:01.962Z,8.20
2019-02-12T09:13:41.453Z,7.90
2019-02-12T09:17:23.688Z,8.20
2019-02-12T09:20:28.049Z,7.77
2019-02-12T09:23:37.458Z,8.05
2019-02-12T09:26:41.917Z,8.30
2019-02-12T09:29:26.900Z,7.83
2019-02-12T09:32:40.252Z,8.30
2019-02-12T09:35:32.743Z,8.40
2019-02-12T09:38:44.488Z,8.53
2019-02-12T09:41:42.012Z,7.33
2019-02-12T09:44:22.636Z,7.53
2019-02-12T09:47:36.144Z,7.50
2019-02-12T09:50:40.448Z,8.18
2019-02-12T09:53:37.890Z,9.33
2019-02-12T09:56:45.652Z,7.83
2019-02-12T09:59:53.454Z,6.78
2019-02-12T10:03:07.025Z,7.55
2019-02-12T10:06:26.292Z,7.23
2019-02-12T10:09:37.029Z,6.50
2019-02-12T10:12:51.171Z,5.80
2019-02-12T10:15:47.246Z,5.83
2019-02-12T10:18:44.315Z,6.20
2019-02-12T10:21:38.978Z,5.50
2019-02-12T10:24:46.812Z,5.75
2019-02-12T10:27:49.021Z,5.83
2019-02-12T10:30:26.142Z,5.00
2019-02-12T10:32:56.993Z,5.35
2019-02-12T10:35:27.499Z,5.47
2019-02-12T10:37:57.981Z,5.42
2019-02-12T10:40:28.460Z,5.28
2019-02-12T10:42:58.960Z,5.77
2019-02-12T10:45:29.445Z,5.60
2019-02-12T10:48:00.039Z,4.87
2019-02-12T10:50:30.490Z,5.40
2019-02-12T10:53:01.037Z,4.70
2019-02-12T10:55:31.501Z,3.93
2019-02-12T10:58:02.006Z,4.22
2019-02-12T11:00:32.470Z,4.90
2019-02-12T11:03:02.925Z,4.45
2019-02-12T11:05:33.347Z,5.20
2019-02-12T11:08:03.838Z,5.10
2019-02-12T11:10:34.304Z,4.97
2019-02-12T11:13:04.765Z,3.90
2019-02-12T11:15:35.520Z,4.90
2019-02-12T11:18:06.088Z,3.40
2019-02-12T11:20:36.521Z,3.60
2019-02-12T11:23:06.970Z,3.42
2019-02-12T11:25:37.413Z,3.65
2019-02-12T11:28:07.851Z,3.70
2019-02-12T11:30:38.322Z,4.17
2019-02-12T11:33:08.754Z,4.10
2019-02-12T11:35:39.273Z,3.77
2019-02-12T11:38:09.863Z,3.60
2019-02-12T11:40:41.528Z,4.00
2019-02-12T11:43:11.972Z,4.80
2019-02-12T11:45:42.533Z,4.23
2019-02-12T11:48:13.024Z,4.63
2019-02-12T11:50:43.514Z,5.40
2019-02-12T11:53:13.998Z,5.35
2019-02-12T11:55:44.437Z,5.58
2019-02-12T11:58:15.421Z,5.22
2019-02-12T12:00:50.814Z,5.47
2019-02-12T12:03:21.260Z,4.83
2019-02-12T12:05:51.725Z,4.30
2019-02-12T12:08:22.192Z,4.85
2019-02-12T12:10:52.682Z,4.37
2019-02-12T12:13:23.160Z,4.83
2019-02-12T12:15:53.703Z,4.70
2019-02-12T12:18:24.149Z,4.93
2019-02-12T12:20:54.580Z,5.05
2019-02-12T12:23:25.048Z,5.00
2019-02-12T12:25:55.573Z,4.75
2019-02-12T12:28:26.102Z,5.08
2019-02-12T12:30:56.921Z,5.20
2019-02-12T12:33:27.784Z,4.97
2019-02-12T12:35:58.241Z,5.07
2019-02-12T12:38:28.696Z,5.15
2019-02-12T12:40:59.172Z,5.58
2019-02-12T12:43:29.911Z,5.50
2019-02-12T12:46:00.439Z,5.00
2019-02-12T12:48:30.895Z,4.67
2019-02-12T12:51:01.353Z,4.10
2019-02-12T12:53:32.169Z,4.40
2019-02-12T12:56:02.657Z,4.10
2019-02-12T12:58:33.112Z,4.23
2019-02-12T13:01:03.582Z,4.10
2019-02-12T13:03:34.041Z,4.30
2019-02-12T13:06:05.457Z,4.13
2019-02-12T13:08:36.914Z,4.50
2019-02-12T13:11:07.397Z,4.33
2019-02-12T13:13:37.834Z,4.90
2019-02-12T13:16:08.328Z,4.60
2019-02-12T13:18:38.875Z,4.80
2019-02-12T13:21:09.646Z,4.90
2019-02-12T13:23:40.093Z,4.50
2019-02-12T13:26:10.559Z,4.30
2019-02-12T13:28:40.989Z,4.53
2019-02-12T13:31:11.429Z,4.25
2019-02-12T13:33:42.583Z,4.90
2019-02-12T13:36:13.010Z,4.50
2019-02-12T13:38:43.534Z,5.10
2019-02-12T13:41:14.140Z,5.40
2019-02-12T13:43:44.589Z,4.78
2019-02-12T13:46:15.334Z,4.63
2019-02-12T13:48:46.434Z,4.90
2019-02-12T13:51:16.915Z,4.80
2019-02-12T13:53:47.812Z,5.07
2019-02-12T13:56:18.334Z,4.77
2019-02-12T13:58:49.169Z,4.35
2019-02-12T14:01:19.921Z,4.57
2019-02-12T14:03:50.839Z,4.80
2019-02-12T14:06:21.419Z,5.23
2019-02-12T14:08:52.198Z,5.00
2019-02-12T14:11:22.713Z,4.80
2019-02-12T14:13:54.585Z,5.37
2019-02-12T14:16:25.040Z,5.35
2019-02-12T14:18:55.533Z,5.80
2019-02-12T14:21:26.324Z,5.87
2019-02-12T14:23:56.794Z,4.80
2019-02-12T14:26:27.259Z,5.08
2019-02-12T14:28:57.716Z,5.42
2019-02-12T14:31:28.230Z,5.23
2019-02-12T14:33:58.700Z,4.33
2019-02-12T14:36:29.202Z,5.20
2019-02-12T14:39:01.124Z,4.50
2019-02-12T14:41:33.335Z,4.73
2019-02-12T14:44:03.808Z,4.80
2019-02-12T14:46:34.301Z,4.08
2019-02-12T14:49:04.766Z,3.53
2019-02-12T14:51:35.440Z,3.70
2019-02-12T14:54:07.300Z,3.60
2019-02-12T14:56:37.985Z,3.52
2019-02-12T14:59:09.113Z,3.23
2019-02-12T15:01:39.644Z,3.67
2019-02-12T15:04:10.157Z,3.58
2019-02-12T15:06:41.543Z,3.77
2019-02-12T15:09:12.032Z,3.37
2019-02-12T15:11:42.550Z,3.33
2019-02-12T15:14:13.061Z,3.17
2019-02-12T15:16:43.565Z,3.30
2019-02-12T15:19:14.030Z,3.52
2019-02-12T15:21:44.522Z,3.40
2019-02-12T15:24:15.007Z,3.93
2019-02-12T15:26:45.470Z,3.67
2019-02-12T15:29:16.039Z,3.40
2019-02-12T15:31:46.514Z,3.27
2019-02-12T15:34:17.032Z,3.67
2019-02-12T15:36:47.569Z,3.60
2019-02-12T15:39:18.060Z,3.40
2019-02-12T15:41:48.702Z,3.60
2019-02-12T15:44:19.141Z,3.20
2019-02-12T15:46:49.665Z,3.67
2019-02-12T15:49:20.837Z,3.27
2019-02-12T15:51:51.644Z,3.52
2019-02-12T15:54:22.096Z,3.90
2019-02-12T15:56:52.559Z,3.40
2019-02-12T15:59:23.333Z,3.30
2019-02-12T16:01:53.788Z,3.80
2019-02-12T16:04:25.810Z,4.20
2019-02-12T16:06:57.856Z,3.25
2019-02-12T16:09:28.546Z,3.03
2019-02-12T16:11:59.416Z,3.33
2019-02-12T16:14:29.941Z,3.10
2019-02-12T16:17:00.376Z,3.10
2019-02-12T16:19:32.029Z,3.40
2019-02-12T16:22:02.587Z,3.60
2019-02-12T16:24:33.449Z,3.27
2019-02-12T16:27:03.976Z,3.35
2019-02-12T16:29:34.806Z,3.35
2019-02-12T16:32:05.297Z,3.30
2019-02-12T16:34:35.773Z,3.80
2019-02-12T16:37:06.232Z,3.30
2019-02-12T16:39:36.725Z,3.50
2019-02-12T16:42:07.201Z,3.70
2019-02-12T16:44:37.644Z,3.15
2019-02-12T16:47:08.465Z,3.17
2019-02-12T16:49:39.221Z,3.75
2019-02-12T16:52:09.675Z,3.27
2019-02-12T16:54:40.495Z,3.40
2019-02-12T16:57:11.373Z,3.35
2019-02-12T16:59:42.177Z,3.27
2019-02-12T17:02:12.684Z,3.30
2019-02-12T17:04:43.441Z,3.27
2019-02-12T17:07:13.945Z,3.00
2019-02-12T17:09:52.125Z,2.92
2019-02-12T17:12:17.009Z,2.90
2019-02-12T17:14:47.492Z,3.00
2019-02-12T17:17:17.937Z,3.00
2019-02-12T17:19:48.368Z,3.20
2019-02-12T17:22:18.826Z,3.37
2019-02-12T17:24:49.621Z,3.40
2019-02-12T17:27:20.092Z,3.70
2019-02-12T17:29:50.870Z,3.37
2019-02-12T17:32:21.349Z,3.20
2019-02-12T17:34:51.810Z,3.58
2019-02-12T17:37:22.320Z,3.55
2019-02-12T17:39:52.814Z,3.30
2019-02-12T17:42:23.268Z,3.60
2019-02-12T17:44:53.742Z,3.27
2019-02-12T17:47:24.226Z,3.35
2019-02-12T17:49:54.996Z,3.10
2019-02-12T17:52:25.453Z,3.47
2019-02-12T17:54:55.928Z,4.00
2019-02-12T17:57:26.399Z,3.90
2019-02-12T17:59:56.844Z,4.70
2019-02-12T18:02:27.330Z,4.20
2019-02-12T18:04:57.781Z,4.17
2019-02-12T18:07:28.286Z,4.47
2019-02-12T18:09:59.121Z,4.33
2019-02-12T18:12:29.597Z,4.25
2019-02-12T18:15:00.044Z,4.73
2019-02-12T18:17:30.511Z,4.70
2019-02-12T18:20:01.353Z,4.60
2019-02-12T18:22:32.861Z,4.93
2019-02-12T18:25:03.312Z,4.60
2019-02-12T18:27:33.768Z,4.40
2019-02-12T18:30:05.229Z,4.87
2019-02-12T18:32:36.251Z,5.10
2019-02-12T18:35:07.177Z,5.33
2019-02-12T18:37:37.617Z,4.82
2019-02-12T18:40:09.197Z,5.30
2019-02-12T18:42:40.096Z,5.70
2019-02-12T18:45:12.696Z,5.60
2019-02-12T18:47:43.129Z,5.60
2019-02-12T18:50:13.568Z,6.17
2019-02-12T18:52:44.354Z,5.77
2019-02-12T18:55:14.884Z,5.87
2019-02-12T18:57:45.355Z,6.03
2019-02-12T19:00:17.640Z,6.10
2019-02-12T19:02:48.511Z,6.15
2019-02-12T19:05:18.965Z,5.80
2019-02-12T19:07:49.425Z,5.90
2019-02-12T19:10:19.890Z,6.10
2019-02-12T19:12:51.402Z,6.30
2019-02-12T19:15:21.888Z,5.92
2019-02-12T19:17:56.460Z,5.87
2019-02-12T19:20:26.920Z,5.80
2019-02-12T19:22:57.353Z,5.60
2019-02-12T19:25:27.836Z,5.75
2019-02-12T19:27:58.713Z,5.73
2019-02-12T19:30:29.162Z,5.30
2019-02-12T19:32:59.652Z,5.43
2019-02-12T19:35:30.127Z,5.53
2019-02-12T19:38:00.618Z,5.78
2019-02-12T19:40:31.055Z,6.05
2019-02-12T19:43:02.513Z,5.83
2019-02-12T19:45:32.948Z,5.85
2019-02-12T19:48:03.425Z,5.53
2019-02-12T19:50:33.881Z,5.60
2019-02-12T19:53:04.602Z,5.90
2019-02-12T19:55:35.437Z,5.67
2019-02-12T19:58:05.933Z,6.15
2019-02-12T20:00:36.385Z,8.58
2019-02-12T20:03:06.846Z,7.33
2019-02-12T20:05:38.288Z,7.80
2019-02-12T20:08:08.774Z,8.50
2019-02-12T20:10:39.229Z,11.28
2019-02-12T20:13:09.798Z,11.20
2019-02-12T20:15:40.276Z,11.93
2019-02-12T20:18:10.737Z,11.53
2019-02-12T20:20:41.168Z,10.63
2019-02-12T20:23:11.801Z,9.88
2019-02-12T20:25:42.228Z,9.83
2019-02-12T20:28:12.702Z,9.33
2019-02-12T20:30:43.154Z,8.47
2019-02-12T20:33:14.915Z,7.20
2019-02-12T20:35:45.349Z,6.27
2019-02-12T20:38:15.838Z,6.58
2019-02-12T20:40:46.316Z,6.17
2019-02-12T20:43:16.812Z,6.12
2019-02-12T20:45:47.272Z,6.27
2019-02-12T20:48:17.725Z,6.53
2019-02-12T20:50:48.317Z,6.15
2019-02-12T20:53:18.831Z,5.80
2019-02-12T20:55:49.309Z,5.75
2019-02-12T20:58:20.259Z,6.37
2019-02-12T21:00:50.801Z,6.30
2019-02-12T21:03:21.338Z,5.97
2019-02-12T21:05:51.802Z,5.78
2019-02-12T21:08:22.928Z,6.30
2019-02-12T21:10:53.500Z,5.83
2019-02-12T21:13:23.988Z,5.40
2019-02-12T21:15:54.468Z,5.95
2019-02-12T21:18:24.916Z,5.80
2019-02-12T21:20:55.361Z,6.85
2019-02-12T21:23:26.025Z,6.53
2019-02-12T21:25:56.605Z,6.17
2019-02-12T21:28:27.055Z,5.90
2019-02-12T21:30:57.476Z,5.50
2019-02-12T21:33:27.948Z,5.83
2019-02-12T21:35:58.381Z,7.30
2019-02-12T21:38:30.269Z,7.83
2019-02-12T21:41:01.029Z,8.43
2019-02-12T21:43:31.987Z,7.85
2019-02-12T21:46:02.433Z,7.30
2019-02-12T21:48:32.904Z,7.33
2019-02-12T21:51:03.361Z,7.20
2019-02-12T21:53:33.833Z,7.08
2019-02-12T21:56:04.277Z,7.23
2019-02-12T21:58:35.046Z,7.30
2019-02-12T22:01:05.498Z,6.30
2019-02-12T22:03:36.329Z,6.40
2019-02-12T22:06:06.800Z,6.27
2019-02-12T22:08:37.241Z,6.12
2019-02-12T22:11:07.680Z,6.33
2019-02-12T22:13:38.547Z,6.30
2019-02-12T22:16:08.988Z,6.70
2019-02-12T22:18:39.432Z,6.60
2019-02-12T22:21:09.856Z,6.23
2019-02-12T22:23:40.285Z,6.40
2019-02-12T22:26:11.009Z,7.40
2019-02-12T22:28:41.780Z,6.72
2019-02-12T22:31:12.235Z,6.83
2019-02-12T22:33:43.072Z,7.95
2019-02-12T22:36:13.524Z,6.55
2019-02-12T22:38:44.043Z,7.00
2019-02-12T22:41:14.502Z,7.03
2019-02-12T22:43:44.965Z,6.87
2019-02-12T22:46:15.425Z,6.50
2019-02-12T22:48:46.132Z,6.70
2019-02-12T22:51:16.641Z,6.58
2019-02-12T22:53:47.406Z,6.05
2019-02-12T22:56:17.839Z,6.80
2019-02-12T22:58:48.314Z,6.35
2019-02-12T23:01:22.996Z,6.83
2019-02-12T23:03:53.513Z,6.10
2019-02-12T23:06:23.930Z,6.95
2019-02-12T23:08:54.363Z,6.83
2019-02-12T23:11:26.447Z,6.63
2019-02-12T23:13:58.018Z,7.20
2019-02-12T23:16:28.466Z,6.90
2019-02-12T23:18:58.957Z,6.58
2019-02-12T23:21:29.375Z,6.70
2019-02-12T23:24:00.134Z,6.62
2019-02-12T23:26:30.573Z,6.92
2019-02-12T23:29:01.033Z,6.67
2019-02-12T23:31:32.486Z,6.60
2019-02-12T23:34:03.629Z,6.93
2019-02-12T23:36:34.069Z,7.20
2019-02-12T23:39:06.021Z,6.62
2019-02-12T23:41:38.113Z,6.60
2019-02-12T23:44:08.570Z,7.05
2019-02-12T23:46:39.008Z,6.30
2019-02-12T23:49:09.508Z,6.85
2019-02-12T23:51:39.973Z,7.10
2019-02-12T23:54:10.397Z,6.90
2019-02-12T23:56:40.872Z,6.42
2019-02-12T23:59:11.330Z,7.23
